sensor_id;sensor_type;location;lat;lon;timestamp;P1;durP1;ratioP1;P2;durP2;ratioP2
13733;SDS011;43298;52.560;13.508;2022-07-29T00:00:06;14.50;;;13.80;;
13733;SDS011;43298;52.560;13.508;2022-07-29T00:02:34;14.05;;;13.45;;
13733;SDS011;43298;52.560;13.508;2022-07-29T00:05:00;14.13;;;13.48;;
13733;SDS011;43298;52.560;13.508;2022-07-29T00:07:26;14.32;;;13.02;;
13733;SDS011;43298;52.560;13.508;2022-07-29T00:09:52;14.55;;;13.85;;
13733;SDS011;43298;52.560;13.508;2022-07-29T00:12:22;11.55;;;11.05;;
13733;SDS011;43298;52.560;13.508;2022-07-29T00:14:49;13.35;;;12.75;;
13733;SDS011;43298;52.560;13.508;2022-07-29T00:17:16;11.65;;;10.95;;
13733;SDS011;43298;52.560;13.508;2022-07-29T00:19:42;12.00;;;11.45;;
13733;SDS011;43298;52.560;13.508;2022-07-29T00:22:08;10.50;;;9.95;;
13733;SDS011;43298;52.560;13.508;2022-07-29T00:24:33;11.45;;;10.85;;
13733;SDS011;43298;52.560;13.508;2022-07-29T00:26:59;10.50;;;10.10;;
13733;SDS011;43298;52.560;13.508;2022-07-29T00:29:25;10.10;;;9.68;;
13733;SDS011;43298;52.560;13.508;2022-07-29T00:31:51;10.27;;;9.77;;
13733;SDS011;43298;52.560;13.508;2022-07-29T00:34:16;10.18;;;9.73;;
13733;SDS011;43298;52.560;13.508;2022-07-29T00:37:00;10.73;;;10.23;;
13733;SDS011;43298;52.560;13.508;2022-07-29T00:39:26;10.52;;;9.93;;
13733;SDS011;43298;52.560;13.508;2022-07-29T00:41:52;10.25;;;9.75;;
13733;SDS011;43298;52.560;13.508;2022-07-29T00:44:18;10.80;;;10.25;;
13733;SDS011;43298;52.560;13.508;2022-07-29T00:46:43;11.35;;;10.85;;
13733;SDS011;43298;52.560;13.508;2022-07-29T00:49:09;10.10;;;9.70;;
13733;SDS011;43298;52.560;13.508;2022-07-29T00:51:36;10.30;;;9.65;;
13733;SDS011;43298;52.560;13.508;2022-07-29T00:54:03;10.55;;;10.05;;
13733;SDS011;43298;52.560;13.508;2022-07-29T00:56:30;11.10;;;10.60;;
13733;SDS011;43298;52.560;13.508;2022-07-29T00:58:57;10.80;;;10.35;;
13733;SDS011;43298;52.560;13.508;2022-07-29T01:01:24;11.48;;;10.98;;
13733;SDS011;43298;52.560;13.508;2022-07-29T01:03:51;11.55;;;10.63;;
13733;SDS011;43298;52.560;13.508;2022-07-29T01:06:17;10.52;;;10.02;;
13733;SDS011;43298;52.560;13.508;2022-07-29T01:08:44;11.35;;;10.85;;
13733;SDS011;43298;52.560;13.508;2022-07-29T01:11:12;11.07;;;10.48;;
13733;SDS011;43298;52.560;13.508;2022-07-29T01:13:39;10.57;;;9.90;;
13733;SDS011;43298;52.560;13.508;2022-07-29T01:16:13;10.20;;;9.80;;
13733;SDS011;43298;52.560;13.508;2022-07-29T01:18:48;9.52;;;9.13;;
13733;SDS011;43298;52.560;13.508;2022-07-29T01:29:57;9.50;;;9.10;;
13733;SDS011;43298;52.560;13.508;2022-07-29T01:32:29;11.18;;;10.68;;
13733;SDS011;43298;52.560;13.508;2022-07-29T01:37:45;10.40;;;9.93;;
13733;SDS011;43298;52.560;13.508;2022-07-29T01:40:23;10.43;;;9.93;;
13733;SDS011;43298;52.560;13.508;2022-07-29T01:43:19;9.77;;;9.27;;
13733;SDS011;43298;52.560;13.508;2022-07-29T01:45:56;11.35;;;10.48;;
13733;SDS011;43298;52.560;13.508;2022-07-29T01:51:07;10.38;;;9.77;;
13733;SDS011;43298;52.560;13.508;2022-07-29T01:53:58;18.55;;;10.52;;
13733;SDS011;43298;52.560;13.508;2022-07-29T01:56:39;10.18;;;9.77;;
13733;SDS011;43298;52.560;13.508;2022-07-29T01:59:07;9.23;;;8.80;;
13733;SDS011;43298;52.560;13.508;2022-07-29T02:01:35;9.85;;;9.38;;
13733;SDS011;43298;52.560;13.508;2022-07-29T02:04:03;10.55;;;10.05;;
13733;SDS011;43298;52.560;13.508;2022-07-29T02:06:32;10.38;;;9.77;;
13733;SDS011;43298;52.560;13.508;2022-07-29T02:09:00;12.10;;;11.27;;
13733;SDS011;43298;52.560;13.508;2022-07-29T02:11:29;10.23;;;9.73;;
13733;SDS011;43298;52.560;13.508;2022-07-29T02:13:58;10.20;;;9.70;;
13733;SDS011;43298;52.560;13.508;2022-07-29T02:16:26;9.75;;;9.35;;
13733;SDS011;43298;52.560;13.508;2022-07-29T02:18:55;10.13;;;9.70;;
13733;SDS011;43298;52.560;13.508;2022-07-29T02:21:26;11.15;;;10.55;;
13733;SDS011;43298;52.560;13.508;2022-07-29T02:23:54;10.80;;;10.20;;
13733;SDS011;43298;52.560;13.508;2022-07-29T02:26:24;11.13;;;10.55;;
13733;SDS011;43298;52.560;13.508;2022-07-29T02:28:54;10.70;;;10.13;;
13733;SDS011;43298;52.560;13.508;2022-07-29T02:31:24;11.20;;;10.45;;
13733;SDS011;43298;52.560;13.508;2022-07-29T02:33:55;9.57;;;9.18;;
13733;SDS011;43298;52.560;13.508;2022-07-29T02:36:22;11.52;;;11.02;;
13733;SDS011;43298;52.560;13.508;2022-07-29T02:38:50;11.40;;;10.90;;
13733;SDS011;43298;52.560;13.508;2022-07-29T02:41:28;11.90;;;11.40;;
13733;SDS011;43298;52.560;13.508;2022-07-29T02:44:06;9.90;;;9.50;;
13733;SDS011;43298;52.560;13.508;2022-07-29T02:46:48;12.32;;;11.82;;
13733;SDS011;43298;52.560;13.508;2022-07-29T02:49:57;11.80;;;11.30;;
13733;SDS011;43298;52.560;13.508;2022-07-29T02:52:38;12.25;;;11.55;;
13733;SDS011;43298;52.560;13.508;2022-07-29T02:55:36;12.30;;;11.80;;
13733;SDS011;43298;52.560;13.508;2022-07-29T02:58:21;13.23;;;12.32;;
13733;SDS011;43298;52.560;13.508;2022-07-29T03:00:55;12.07;;;11.48;;
13733;SDS011;43298;52.560;13.508;2022-07-29T03:03:25;12.15;;;11.65;;
13733;SDS011;43298;52.560;13.508;2022-07-29T03:06:01;12.23;;;11.73;;
13733;SDS011;43298;52.560;13.508;2022-07-29T03:08:30;12.82;;;12.32;;
13733;SDS011;43298;52.560;13.508;2022-07-29T03:10:57;12.95;;;12.35;;
13733;SDS011;43298;52.560;13.508;2022-07-29T03:13:25;13.40;;;12.70;;
13733;SDS011;43298;52.560;13.508;2022-07-29T03:15:54;12.27;;;11.68;;
13733;SDS011;43298;52.560;13.508;2022-07-29T03:18:22;11.10;;;10.60;;
13733;SDS011;43298;52.560;13.508;2022-07-29T03:20:48;12.15;;;11.65;;
13733;SDS011;43298;52.560;13.508;2022-07-29T03:23:18;11.02;;;10.55;;
13733;SDS011;43298;52.560;13.508;2022-07-29T03:25:47;11.32;;;10.82;;
13733;SDS011;43298;52.560;13.508;2022-07-29T03:28:14;11.13;;;10.63;;
13733;SDS011;43298;52.560;13.508;2022-07-29T03:30:40;9.73;;;9.32;;
13733;SDS011;43298;52.560;13.508;2022-07-29T03:33:06;12.02;;;11.50;;
13733;SDS011;43298;52.560;13.508;2022-07-29T03:35:32;10.57;;;10.07;;
13733;SDS011;43298;52.560;13.508;2022-07-29T03:37:58;11.55;;;10.85;;
13733;SDS011;43298;52.560;13.508;2022-07-29T03:40:44;11.45;;;10.95;;
13733;SDS011;43298;52.560;13.508;2022-07-29T03:43:20;10.45;;;9.95;;
13733;SDS011;43298;52.560;13.508;2022-07-29T03:45:49;11.43;;;10.82;;
13733;SDS011;43298;52.560;13.508;2022-07-29T03:48:20;11.65;;;11.05;;
13733;SDS011;43298;52.560;13.508;2022-07-29T03:50:49;11.05;;;10.55;;
13733;SDS011;43298;52.560;13.508;2022-07-29T03:53:15;11.13;;;10.63;;
13733;SDS011;43298;52.560;13.508;2022-07-29T03:55:45;11.13;;;10.63;;
13733;SDS011;43298;52.560;13.508;2022-07-29T03:58:17;10.68;;;10.18;;
13733;SDS011;43298;52.560;13.508;2022-07-29T04:00:44;10.68;;;10.07;;
13733;SDS011;43298;52.560;13.508;2022-07-29T04:03:11;10.30;;;9.82;;
13733;SDS011;43298;52.560;13.508;2022-07-29T04:05:38;11.00;;;10.38;;
13733;SDS011;43298;52.560;13.508;2022-07-29T04:08:04;11.30;;;10.80;;
13733;SDS011;43298;52.560;13.508;2022-07-29T04:10:30;11.20;;;10.60;;
13733;SDS011;43298;52.560;13.508;2022-07-29T04:12:56;11.68;;;11.18;;
13733;SDS011;43298;52.560;13.508;2022-07-29T04:15:23;11.32;;;10.82;;
13733;SDS011;43298;52.560;13.508;2022-07-29T04:17:48;12.23;;;11.73;;
13733;SDS011;43298;52.560;13.508;2022-07-29T04:20:14;11.00;;;10.48;;
13733;SDS011;43298;52.560;13.508;2022-07-29T04:22:40;11.60;;;10.95;;
13733;SDS011;43298;52.560;13.508;2022-07-29T04:25:06;11.57;;;10.98;;
13733;SDS011;43298;52.560;13.508;2022-07-29T04:27:32;11.23;;;10.73;;
13733;SDS011;43298;52.560;13.508;2022-07-29T04:29:58;10.73;;;10.18;;
13733;SDS011;43298;52.560;13.508;2022-07-29T04:32:25;13.13;;;11.95;;
13733;SDS011;43298;52.560;13.508;2022-07-29T04:34:51;13.40;;;12.75;;
13733;SDS011;43298;52.560;13.508;2022-07-29T04:37:17;12.88;;;12.27;;
13733;SDS011;43298;52.560;13.508;2022-07-29T04:39:43;13.85;;;13.25;;
13733;SDS011;43298;52.560;13.508;2022-07-29T04:42:09;14.43;;;13.65;;
13733;SDS011;43298;52.560;13.508;2022-07-29T04:44:35;14.18;;;13.57;;
13733;SDS011;43298;52.560;13.508;2022-07-29T04:47:01;12.68;;;12.13;;
13733;SDS011;43298;52.560;13.508;2022-07-29T04:49:26;12.40;;;11.80;;
13733;SDS011;43298;52.560;13.508;2022-07-29T04:51:52;12.43;;;11.93;;
13733;SDS011;43298;52.560;13.508;2022-07-29T04:54:18;12.38;;;11.68;;
13733;SDS011;43298;52.560;13.508;2022-07-29T04:56:44;11.98;;;11.48;;
13733;SDS011;43298;52.560;13.508;2022-07-29T04:59:11;12.38;;;11.77;;
13733;SDS011;43298;52.560;13.508;2022-07-29T05:01:37;11.57;;;11.00;;
13733;SDS011;43298;52.560;13.508;2022-07-29T05:04:02;14.00;;;13.10;;
13733;SDS011;43298;52.560;13.508;2022-07-29T05:06:28;12.93;;;12.43;;
13733;SDS011;43298;52.560;13.508;2022-07-29T05:08:54;12.93;;;12.23;;
13733;SDS011;43298;52.560;13.508;2022-07-29T05:11:20;13.40;;;12.80;;
13733;SDS011;43298;52.560;13.508;2022-07-29T05:13:46;11.73;;;11.20;;
13733;SDS011;43298;52.560;13.508;2022-07-29T05:16:11;13.70;;;13.10;;
13733;SDS011;43298;52.560;13.508;2022-07-29T05:18:38;13.82;;;13.18;;
13733;SDS011;43298;52.560;13.508;2022-07-29T05:21:04;12.88;;;12.27;;
13733;SDS011;43298;52.560;13.508;2022-07-29T05:23:30;12.98;;;12.38;;
13733;SDS011;43298;52.560;13.508;2022-07-29T05:25:55;14.60;;;14.00;;
13733;SDS011;43298;52.560;13.508;2022-07-29T05:28:21;12.70;;;12.20;;
13733;SDS011;43298;52.560;13.508;2022-07-29T05:30:47;13.13;;;12.45;;
13733;SDS011;43298;52.560;13.508;2022-07-29T05:33:14;14.07;;;13.48;;
13733;SDS011;43298;52.560;13.508;2022-07-29T05:35:40;15.98;;;15.27;;
13733;SDS011;43298;52.560;13.508;2022-07-29T05:38:06;16.17;;;15.48;;
13733;SDS011;43298;52.560;13.508;2022-07-29T05:40:31;12.95;;;12.43;;
13733;SDS011;43298;52.560;13.508;2022-07-29T05:42:59;13.68;;;13.07;;
13733;SDS011;43298;52.560;13.508;2022-07-29T05:45:24;11.02;;;10.52;;
13733;SDS011;43298;52.560;13.508;2022-07-29T05:47:50;12.55;;;11.88;;
13733;SDS011;43298;52.560;13.508;2022-07-29T05:50:16;12.40;;;11.85;;
13733;SDS011;43298;52.560;13.508;2022-07-29T05:52:42;12.50;;;11.55;;
13733;SDS011;43298;52.560;13.508;2022-07-29T05:55:08;12.50;;;12.00;;
13733;SDS011;43298;52.560;13.508;2022-07-29T05:57:34;11.40;;;10.90;;
13733;SDS011;43298;52.560;13.508;2022-07-29T05:59:59;12.32;;;11.82;;
13733;SDS011;43298;52.560;13.508;2022-07-29T06:02:25;12.18;;;11.57;;
13733;SDS011;43298;52.560;13.508;2022-07-29T06:04:51;12.30;;;11.80;;
13733;SDS011;43298;52.560;13.508;2022-07-29T06:07:17;12.32;;;11.68;;
13733;SDS011;43298;52.560;13.508;2022-07-29T06:09:43;10.95;;;10.45;;
13733;SDS011;43298;52.560;13.508;2022-07-29T06:12:09;10.40;;;9.90;;
13733;SDS011;43298;52.560;13.508;2022-07-29T06:14:35;12.73;;;12.20;;
13733;SDS011;43298;52.560;13.508;2022-07-29T06:17:02;13.65;;;13.05;;
13733;SDS011;43298;52.560;13.508;2022-07-29T06:19:29;11.38;;;10.85;;
13733;SDS011;43298;52.560;13.508;2022-07-29T06:21:55;11.60;;;11.10;;
13733;SDS011;43298;52.560;13.508;2022-07-29T06:24:21;11.88;;;11.38;;
13733;SDS011;43298;52.560;13.508;2022-07-29T06:26:47;11.13;;;10.63;;
13733;SDS011;43298;52.560;13.508;2022-07-29T06:29:12;10.73;;;10.30;;
13733;SDS011;43298;52.560;13.508;2022-07-29T06:31:38;12.07;;;11.57;;
13733;SDS011;43298;52.560;13.508;2022-07-29T06:34:04;11.07;;;10.48;;
13733;SDS011;43298;52.560;13.508;2022-07-29T06:36:30;18.10;;;17.30;;
13733;SDS011;43298;52.560;13.508;2022-07-29T06:38:59;21.92;;;20.92;;
13733;SDS011;43298;52.560;13.508;2022-07-29T06:41:25;21.65;;;20.73;;
13733;SDS011;43298;52.560;13.508;2022-07-29T06:43:51;21.67;;;20.77;;
13733;SDS011;43298;52.560;13.508;2022-07-29T06:46:17;21.70;;;20.67;;
13733;SDS011;43298;52.560;13.508;2022-07-29T06:48:44;21.33;;;20.08;;
13733;SDS011;43298;52.560;13.508;2022-07-29T06:51:10;19.92;;;19.02;;
13733;SDS011;43298;52.560;13.508;2022-07-29T06:53:37;18.65;;;17.83;;
13733;SDS011;43298;52.560;13.508;2022-07-29T06:56:03;16.08;;;15.32;;
13733;SDS011;43298;52.560;13.508;2022-07-29T06:58:33;16.20;;;15.50;;
13733;SDS011;43298;52.560;13.508;2022-07-29T07:01:01;17.27;;;16.48;;
13733;SDS011;43298;52.560;13.508;2022-07-29T07:03:29;15.45;;;14.75;;
13733;SDS011;43298;52.560;13.508;2022-07-29T07:05:56;15.52;;;14.82;;
13733;SDS011;43298;52.560;13.508;2022-07-29T07:08:22;13.35;;;12.75;;
13733;SDS011;43298;52.560;13.508;2022-07-29T07:10:49;13.65;;;13.02;;
13733;SDS011;43298;52.560;13.508;2022-07-29T07:13:15;12.80;;;12.20;;
13733;SDS011;43298;52.560;13.508;2022-07-29T07:15:42;11.73;;;11.23;;
13733;SDS011;43298;52.560;13.508;2022-07-29T07:18:13;11.75;;;11.15;;
13733;SDS011;43298;52.560;13.508;2022-07-29T07:20:40;11.55;;;10.73;;
13733;SDS011;43298;52.560;13.508;2022-07-29T07:23:07;11.85;;;11.35;;
13733;SDS011;43298;52.560;13.508;2022-07-29T07:25:33;11.95;;;11.45;;
13733;SDS011;43298;52.560;13.508;2022-07-29T07:27:59;12.55;;;11.95;;
13733;SDS011;43298;52.560;13.508;2022-07-29T07:30:25;12.85;;;12.25;;
13733;SDS011;43298;52.560;13.508;2022-07-29T07:32:52;13.05;;;12.48;;
13733;SDS011;43298;52.560;13.508;2022-07-29T07:35:19;12.98;;;12.32;;
13733;SDS011;43298;52.560;13.508;2022-07-29T07:37:44;13.32;;;12.77;;
13733;SDS011;43298;52.560;13.508;2022-07-29T07:40:10;14.00;;;13.40;;
13733;SDS011;43298;52.560;13.508;2022-07-29T07:42:37;15.32;;;14.68;;
13733;SDS011;43298;52.560;13.508;2022-07-29T07:45:06;13.00;;;12.48;;
13733;SDS011;43298;52.560;13.508;2022-07-29T07:47:34;14.07;;;13.48;;
13733;SDS011;43298;52.560;13.508;2022-07-29T07:50:03;13.90;;;13.30;;
13733;SDS011;43298;52.560;13.508;2022-07-29T07:52:34;14.77;;;12.80;;
13733;SDS011;43298;52.560;13.508;2022-07-29T07:55:12;15.13;;;14.45;;
13733;SDS011;43298;52.560;13.508;2022-07-29T07:57:38;13.68;;;13.07;;
13733;SDS011;43298;52.560;13.508;2022-07-29T08:00:04;11.35;;;10.85;;
13733;SDS011;43298;52.560;13.508;2022-07-29T08:02:31;12.57;;;12.07;;
13733;SDS011;43298;52.560;13.508;2022-07-29T08:04:57;12.32;;;11.82;;
13733;SDS011;43298;52.560;13.508;2022-07-29T08:07:24;13.63;;;12.98;;
13733;SDS011;43298;52.560;13.508;2022-07-29T08:09:50;12.93;;;12.32;;
13733;SDS011;43298;52.560;13.508;2022-07-29T08:12:16;12.13;;;11.52;;
13733;SDS011;43298;52.560;13.508;2022-07-29T08:14:41;13.07;;;12.48;;
13733;SDS011;43298;52.560;13.508;2022-07-29T08:17:07;11.93;;;11.43;;
13733;SDS011;43298;52.560;13.508;2022-07-29T08:19:33;12.88;;;12.38;;
13733;SDS011;43298;52.560;13.508;2022-07-29T08:21:59;13.77;;;13.18;;
13733;SDS011;43298;52.560;13.508;2022-07-29T08:24:24;13.48;;;12.88;;
13733;SDS011;43298;52.560;13.508;2022-07-29T08:27:09;12.30;;;11.80;;
13733;SDS011;43298;52.560;13.508;2022-07-29T08:29:36;13.15;;;12.55;;
13733;SDS011;43298;52.560;13.508;2022-07-29T08:32:03;14.13;;;13.50;;
13733;SDS011;43298;52.560;13.508;2022-07-29T08:34:29;13.60;;;13.00;;
13733;SDS011;43298;52.560;13.508;2022-07-29T08:36:55;14.05;;;13.45;;
13733;SDS011;43298;52.560;13.508;2022-07-29T08:39:22;15.05;;;14.25;;
13733;SDS011;43298;52.560;13.508;2022-07-29T08:41:49;13.85;;;13.25;;
13733;SDS011;43298;52.560;13.508;2022-07-29T08:44:16;14.70;;;14.10;;
13733;SDS011;43298;52.560;13.508;2022-07-29T08:46:43;14.98;;;14.30;;
13733;SDS011;43298;52.560;13.508;2022-07-29T08:49:10;13.82;;;13.23;;
13733;SDS011;43298;52.560;13.508;2022-07-29T08:51:36;14.57;;;13.98;;
13733;SDS011;43298;52.560;13.508;2022-07-29T08:54:04;13.52;;;12.93;;
13733;SDS011;43298;52.560;13.508;2022-07-29T08:56:32;13.25;;;12.73;;
13733;SDS011;43298;52.560;13.508;2022-07-29T08:58:59;17.30;;;16.55;;
13733;SDS011;43298;52.560;13.508;2022-07-29T09:01:30;14.38;;;13.68;;
13733;SDS011;43298;52.560;13.508;2022-07-29T09:04:00;14.73;;;14.13;;
13733;SDS011;43298;52.560;13.508;2022-07-29T09:06:30;12.48;;;11.98;;
13733;SDS011;43298;52.560;13.508;2022-07-29T09:08:59;13.75;;;13.15;;
13733;SDS011;43298;52.560;13.508;2022-07-29T09:11:26;14.90;;;14.30;;
13733;SDS011;43298;52.560;13.508;2022-07-29T09:13:52;20.63;;;19.70;;
13733;SDS011;43298;52.560;13.508;2022-07-29T09:16:18;15.90;;;15.15;;
13733;SDS011;43298;52.560;13.508;2022-07-29T09:18:44;14.00;;;13.40;;
13733;SDS011;43298;52.560;13.508;2022-07-29T09:21:13;15.80;;;15.10;;
13733;SDS011;43298;52.560;13.508;2022-07-29T09:24:10;15.95;;;15.18;;
13733;SDS011;43298;52.560;13.508;2022-07-29T09:26:39;14.68;;;14.07;;
13733;SDS011;43298;52.560;13.508;2022-07-29T09:31:43;15.30;;;14.70;;
13733;SDS011;43298;52.560;13.508;2022-07-29T09:34:14;15.93;;;15.23;;
13733;SDS011;43298;52.560;13.508;2022-07-29T09:36:46;17.65;;;16.67;;
13733;SDS011;43298;52.560;13.508;2022-07-29T09:39:15;15.63;;;14.93;;
13733;SDS011;43298;52.560;13.508;2022-07-29T09:41:52;15.55;;;14.85;;
13733;SDS011;43298;52.560;13.508;2022-07-29T09:44:23;15.95;;;15.25;;
13733;SDS011;43298;52.560;13.508;2022-07-29T09:47:02;17.92;;;17.05;;
13733;SDS011;43298;52.560;13.508;2022-07-29T09:49:33;15.55;;;14.60;;
13733;SDS011;43298;52.560;13.508;2022-07-29T09:52:04;14.98;;;14.35;;
13733;SDS011;43298;52.560;13.508;2022-07-29T09:54:34;15.93;;;15.23;;
13733;SDS011;43298;52.560;13.508;2022-07-29T09:57:05;15.52;;;14.82;;
13733;SDS011;43298;52.560;13.508;2022-07-29T09:59:37;15.00;;;14.40;;
13733;SDS011;43298;52.560;13.508;2022-07-29T10:02:13;16.05;;;15.35;;
13733;SDS011;43298;52.560;13.508;2022-07-29T10:04:39;16.48;;;14.95;;
13733;SDS011;43298;52.560;13.508;2022-07-29T10:07:06;15.00;;;14.40;;
13733;SDS011;43298;52.560;13.508;2022-07-29T10:09:33;13.98;;;13.07;;
13733;SDS011;43298;52.560;13.508;2022-07-29T10:12:03;15.70;;;15.05;;
13733;SDS011;43298;52.560;13.508;2022-07-29T10:14:31;15.07;;;14.48;;
13733;SDS011;43298;52.560;13.508;2022-07-29T10:17:01;16.05;;;15.35;;
13733;SDS011;43298;52.560;13.508;2022-07-29T10:19:29;15.80;;;15.10;;
13733;SDS011;43298;52.560;13.508;2022-07-29T10:21:57;16.08;;;15.38;;
13733;SDS011;43298;52.560;13.508;2022-07-29T10:24:27;15.27;;;14.60;;
13733;SDS011;43298;52.560;13.508;2022-07-29T10:26:55;18.10;;;17.33;;
13733;SDS011;43298;52.560;13.508;2022-07-29T10:29:23;18.98;;;18.17;;
13733;SDS011;43298;52.560;13.508;2022-07-29T10:31:57;19.25;;;18.42;;
13733;SDS011;43298;52.560;13.508;2022-07-29T10:40:55;16.67;;;15.98;;
13733;SDS011;43298;52.560;13.508;2022-07-29T10:44:06;16.60;;;15.90;;
13733;SDS011;43298;52.560;13.508;2022-07-29T10:46:39;17.60;;;16.88;;
13733;SDS011;43298;52.560;13.508;2022-07-29T11:05:07;18.70;;;17.90;;
13733;SDS011;43298;52.560;13.508;2022-07-29T11:11:31;69.03;;;64.80;;
13733;SDS011;43298;52.560;13.508;2022-07-29T11:16:11;23.60;;;22.52;;
13733;SDS011;43298;52.560;13.508;2022-07-29T11:21:48;19.17;;;18.38;;
13733;SDS011;43298;52.560;13.508;2022-07-29T11:29:56;17.35;;;16.65;;
13733;SDS011;43298;52.560;13.508;2022-07-29T11:32:35;18.42;;;17.63;;
13733;SDS011;43298;52.560;13.508;2022-07-29T11:35:17;16.42;;;15.73;;
13733;SDS011;43298;52.560;13.508;2022-07-29T11:37:46;16.60;;;15.90;;
13733;SDS011;43298;52.560;13.508;2022-07-29T11:49:24;17.58;;;16.77;;
13733;SDS011;43298;52.560;13.508;2022-07-29T11:51:52;17.05;;;16.35;;
13733;SDS011;43298;52.560;13.508;2022-07-29T11:54:30;17.30;;;16.58;;
13733;SDS011;43298;52.560;13.508;2022-07-29T11:56:58;20.23;;;19.08;;
13733;SDS011;43298;52.560;13.508;2022-07-29T11:59:24;17.85;;;17.08;;
13733;SDS011;43298;52.560;13.508;2022-07-29T12:01:54;20.25;;;19.30;;
13733;SDS011;43298;52.560;13.508;2022-07-29T12:04:21;17.85;;;17.05;;
13733;SDS011;43298;52.560;13.508;2022-07-29T12:06:51;18.17;;;17.27;;
13733;SDS011;43298;52.560;13.508;2022-07-29T12:09:18;18.88;;;18.08;;
13733;SDS011;43298;52.560;13.508;2022-07-29T12:11:45;18.17;;;17.40;;
13733;SDS011;43298;52.560;13.508;2022-07-29T12:14:27;18.27;;;17.48;;
13733;SDS011;43298;52.560;13.508;2022-07-29T12:16:55;18.63;;;17.83;;
13733;SDS011;43298;52.560;13.508;2022-07-29T12:19:22;18.00;;;16.58;;
13733;SDS011;43298;52.560;13.508;2022-07-29T12:21:49;19.17;;;18.35;;
13733;SDS011;43298;52.560;13.508;2022-07-29T12:24:17;17.92;;;17.20;;
13733;SDS011;43298;52.560;13.508;2022-07-29T12:29:17;19.05;;;18.25;;
13733;SDS011;43298;52.560;13.508;2022-07-29T12:31:44;18.67;;;17.88;;
13733;SDS011;43298;52.560;13.508;2022-07-29T12:34:11;19.10;;;18.10;;
13733;SDS011;43298;52.560;13.508;2022-07-29T12:36:42;20.58;;;19.67;;
13733;SDS011;43298;52.560;13.508;2022-07-29T12:39:09;18.23;;;17.48;;
13733;SDS011;43298;52.560;13.508;2022-07-29T12:41:36;16.85;;;16.15;;
13733;SDS011;43298;52.560;13.508;2022-07-29T12:44:03;17.27;;;16.58;;
13733;SDS011;43298;52.560;13.508;2022-07-29T12:46:29;18.40;;;17.60;;
13733;SDS011;43298;52.560;13.508;2022-07-29T12:48:55;19.17;;;18.17;;
13733;SDS011;43298;52.560;13.508;2022-07-29T12:51:32;18.38;;;17.33;;
13733;SDS011;43298;52.560;13.508;2022-07-29T12:54:14;17.42;;;16.52;;
13733;SDS011;43298;52.560;13.508;2022-07-29T12:56:40;17.42;;;16.63;;
13733;SDS011;43298;52.560;13.508;2022-07-29T12:59:18;17.30;;;16.55;;
13733;SDS011;43298;52.560;13.508;2022-07-29T13:01:46;17.35;;;16.63;;
13733;SDS011;43298;52.560;13.508;2022-07-29T13:04:25;19.45;;;18.30;;
13733;SDS011;43298;52.560;13.508;2022-07-29T13:06:59;18.10;;;17.30;;
13733;SDS011;43298;52.560;13.508;2022-07-29T13:09:42;18.25;;;17.05;;
13733;SDS011;43298;52.560;13.508;2022-07-29T13:12:12;18.50;;;17.63;;
13733;SDS011;43298;52.560;13.508;2022-07-29T13:14:40;16.15;;;15.45;;
13733;SDS011;43298;52.560;13.508;2022-07-29T13:17:11;17.02;;;16.27;;
13733;SDS011;43298;52.560;13.508;2022-07-29T13:19:48;18.77;;;17.98;;
13733;SDS011;43298;52.560;13.508;2022-07-29T13:22:29;18.30;;;17.50;;
13733;SDS011;43298;52.560;13.508;2022-07-29T13:24:58;18.88;;;18.08;;
13733;SDS011;43298;52.560;13.508;2022-07-29T13:27:32;18.75;;;17.95;;
13733;SDS011;43298;52.560;13.508;2022-07-29T13:30:01;18.80;;;18.00;;
13733;SDS011;43298;52.560;13.508;2022-07-29T13:32:33;18.45;;;17.65;;
13733;SDS011;43298;52.560;13.508;2022-07-29T13:35:00;19.23;;;18.38;;
13733;SDS011;43298;52.560;13.508;2022-07-29T13:37:29;19.15;;;18.25;;
13733;SDS011;43298;52.560;13.508;2022-07-29T13:39:57;18.58;;;17.75;;
13733;SDS011;43298;52.560;13.508;2022-07-29T13:42:24;19.58;;;18.77;;
13733;SDS011;43298;52.560;13.508;2022-07-29T13:44:51;19.75;;;18.95;;
13733;SDS011;43298;52.560;13.508;2022-07-29T13:47:17;18.30;;;17.50;;
13733;SDS011;43298;52.560;13.508;2022-07-29T13:49:47;19.73;;;18.75;;
13733;SDS011;43298;52.560;13.508;2022-07-29T13:52:13;16.83;;;16.13;;
13733;SDS011;43298;52.560;13.508;2022-07-29T13:54:39;18.35;;;17.42;;
13733;SDS011;43298;52.560;13.508;2022-07-29T13:57:05;18.60;;;17.80;;
13733;SDS011;43298;52.560;13.508;2022-07-29T13:59:30;17.92;;;17.13;;
13733;SDS011;43298;52.560;13.508;2022-07-29T14:01:56;19.05;;;18.25;;
13733;SDS011;43298;52.560;13.508;2022-07-29T14:04:22;17.58;;;16.85;;
13733;SDS011;43298;52.560;13.508;2022-07-29T14:06:49;16.95;;;16.25;;
13733;SDS011;43298;52.560;13.508;2022-07-29T14:09:15;18.20;;;17.40;;
13733;SDS011;43298;52.560;13.508;2022-07-29T14:11:41;21.33;;;20.42;;
13733;SDS011;43298;52.560;13.508;2022-07-29T14:14:07;19.85;;;19.00;;
13733;SDS011;43298;52.560;13.508;2022-07-29T14:16:33;17.38;;;16.65;;
13733;SDS011;43298;52.560;13.508;2022-07-29T14:18:59;18.67;;;17.77;;
13733;SDS011;43298;52.560;13.508;2022-07-29T14:21:25;18.35;;;17.55;;
13733;SDS011;43298;52.560;13.508;2022-07-29T14:23:51;17.17;;;16.48;;
13733;SDS011;43298;52.560;13.508;2022-07-29T14:26:17;22.30;;;21.23;;
13733;SDS011;43298;52.560;13.508;2022-07-29T14:28:43;18.67;;;17.85;;
13733;SDS011;43298;52.560;13.508;2022-07-29T14:31:09;17.27;;;16.58;;
13733;SDS011;43298;52.560;13.508;2022-07-29T14:33:35;17.02;;;15.90;;
13733;SDS011;43298;52.560;13.508;2022-07-29T14:36:01;17.67;;;16.88;;
13733;SDS011;43298;52.560;13.508;2022-07-29T14:38:26;16.92;;;16.23;;
13733;SDS011;43298;52.560;13.508;2022-07-29T14:40:52;17.65;;;16.85;;
13733;SDS011;43298;52.560;13.508;2022-07-29T14:43:18;17.58;;;16.88;;
13733;SDS011;43298;52.560;13.508;2022-07-29T14:45:44;18.88;;;17.98;;
13733;SDS011;43298;52.560;13.508;2022-07-29T14:48:09;16.00;;;15.30;;
13733;SDS011;43298;52.560;13.508;2022-07-29T14:50:36;17.27;;;16.58;;
13733;SDS011;43298;52.560;13.508;2022-07-29T14:53:02;19.85;;;18.95;;
13733;SDS011;43298;52.560;13.508;2022-07-29T14:55:28;18.17;;;17.45;;
13733;SDS011;43298;52.560;13.508;2022-07-29T14:57:54;18.20;;;17.38;;
13733;SDS011;43298;52.560;13.508;2022-07-29T15:00:20;19.10;;;18.27;;
13733;SDS011;43298;52.560;13.508;2022-07-29T15:02:47;20.15;;;19.20;;
13733;SDS011;43298;52.560;13.508;2022-07-29T15:05:13;19.00;;;17.88;;
13733;SDS011;43298;52.560;13.508;2022-07-29T15:07:39;17.20;;;16.30;;
13733;SDS011;43298;52.560;13.508;2022-07-29T15:10:05;16.73;;;16.02;;
13733;SDS011;43298;52.560;13.508;2022-07-29T15:12:31;17.85;;;17.13;;
13733;SDS011;43298;52.560;13.508;2022-07-29T15:14:57;14.57;;;13.98;;
13733;SDS011;43298;52.560;13.508;2022-07-29T15:17:24;16.75;;;16.05;;
13733;SDS011;43298;52.560;13.508;2022-07-29T15:19:50;17.02;;;16.33;;
13733;SDS011;43298;52.560;13.508;2022-07-29T15:22:16;18.90;;;18.05;;
13733;SDS011;43298;52.560;13.508;2022-07-29T15:24:42;18.25;;;17.45;;